Time;durP1;ratioP1;P1;durP2;ratioP2;P2;SDS_P1;SDS_P2;PMS_P1;PMS_P2;Temp;Humidity;BMP_temperature;BMP_pressure;BME280_temperature;BME280_humidity;BME280_pressure;Samples;Min_cycle;Max_cycle;Signal;HPM_P1;HPM_P2
2021/05/31 00:04:34;;;;;;;26.25;15.32;;;;;;;11.32;100.00;102495.75;3652897;22;20035;-66
2021/05/31 00:07:04;;;;;;;24.65;14.85;;;;;;;11.24;100.00;102498.97;3609536;39;20071;-66
2021/05/31 00:09:30;;;;;;;;;;;;;;;11.18;100.00;102502.91;3612025;39;20187;-66
2021/05/31 00:11:58;;;;;;;24.92;14.90;;;;;;;11.10;100.00;102501.69;3610230;39;19931;-66
2021/05/31 00:14:24;;;;;;;27.67;16.23;;;;;;;11.02;100.00;102496.78;3609748;39;20070;-65
2021/05/31 00:16:50;;;;;;;25.83;15.90;;;;;;;10.91;100.00;102491.22;3610578;39;20043;-66
2021/05/31 00:19:19;;;;;;;23.65;14.60;;;;;;;10.92;100.00;102496.50;3610484;39;20061;-66
2021/05/31 00:21:45;;;;;;;26.65;15.55;;;;;;;11.03;100.00;102493.13;3610149;39;20043;-66
2021/05/31 00:24:11;;;;;;;31.65;15.30;;;;;;;10.92;100.00;102491.13;3608619;39;20413;-66
2021/05/31 00:26:37;;;;;;;25.88;15.75;;;;;;;10.80;100.00;102484.69;3610250;39;20135;-66
2021/05/31 00:29:04;;;;;;;21.80;17.00;;;;;;;10.66;100.00;102492.78;3610863;39;20051;-67
2021/05/31 00:31:30;;;;;;;26.40;17.23;;;;;;;10.58;100.00;102485.19;3609587;39;20048;-66
2021/05/31 00:33:56;;;;;;;25.75;16.33;;;;;;;10.65;100.00;102494.59;3609992;39;20033;-66
2021/05/31 00:36:22;;;;;;;28.67;16.35;;;;;;;10.60;100.00;102485.06;3610028;39;20426;-66
2021/05/31 00:38:49;;;;;;;23.60;15.65;;;;;;;10.64;100.00;102494.69;3608928;39;20035;-66
2021/05/31 00:41:15;;;;;;;27.80;17.23;;;;;;;10.51;100.00;102495.47;3610450;39;20036;-66
2021/05/31 00:43:41;;;;;;;28.40;16.77;;;;;;;10.52;100.00;102491.81;3610421;39;20067;-66
2021/05/31 00:46:10;;;;;;;26.05;16.50;;;;;;;10.57;100.00;102487.97;3610041;39;20317;-66
2021/05/31 00:48:38;;;;;;;26.55;16.00;;;;;;;10.51;100.00;102481.13;3611412;39;20053;-67
2021/05/31 00:51:07;;;;;;;25.17;15.60;;;;;;;10.57;100.00;102490.66;3609310;39;20042;-66
2021/05/31 00:53:34;;;;;;;29.70;17.17;;;;;;;10.54;100.00;102489.03;3608213;39;20058;-66
2021/05/31 00:56:00;;;;;;;27.85;17.50;;;;;;;10.40;100.00;102481.81;3610434;39;20057;-66
2021/05/31 00:58:28;;;;;;;29.17;17.50;;;;;;;10.40;100.00;102487.19;3610009;39;20358;-66
2021/05/31 01:00:55;;;;;;;30.77;17.20;;;;;;;10.31;100.00;102476.97;3609923;39;20046;-66
2021/05/31 01:03:22;;;;;;;29.38;16.95;;;;;;;10.36;100.00;102479.41;3609453;39;20344;-67
2021/05/31 01:05:48;;;;;;;29.80;17.77;;;;;;;10.33;100.00;102484.03;3611250;39;20123;-66
2021/05/31 01:08:19;;;;;;;23.70;17.17;;;;;;;10.25;100.00;102477.34;3610864;39;20091;-66
2021/05/31 01:10:50;;;;;;;32.17;17.75;;;;;;;10.26;100.00;102474.56;3610431;39;20448;-66
2021/05/31 01:13:19;;;;;;;26.88;17.75;;;;;;;10.26;100.00;102476.38;3608608;39;20082;-66
2021/05/31 01:15:50;;;;;;;28.58;18.13;;;;;;;10.20;100.00;102479.44;3609910;39;20063;-67
2021/05/31 01:18:20;;;;;;;27.85;17.98;;;;;;;10.16;100.00;102470.72;3610307;39;20055;-67
2021/05/31 01:20:55;;;;;;;;;;;;;;;10.26;100.00;102474.56;3610241;39;20096;-66
2021/05/31 01:23:25;;;;;;;30.02;18.25;;;;;;;10.22;100.00;102472.13;3608261;39;20206;-66
2021/05/31 01:26:02;;;;;;;33.97;18.15;;;;;;;10.18;100.00;102483.09;3610425;39;20051;-66
2021/05/31 01:28:54;;;;;;;34.05;17.98;;;;;;;10.17;100.00;102476.00;3610419;39;20028;-66
2021/05/31 01:31:24;;;;;;;28.98;17.33;;;;;;;10.08;100.00;102471.16;3609988;39;20044;-66
2021/05/31 01:33:51;;;;;;;;;;;;;;;10.07;100.00;102474.81;3610052;39;20062;-66
2021/05/31 01:36:20;;;;;;;29.17;15.82;;;;;;;9.96;100.00;102471.91;3609510;39;20205;-66
2021/05/31 01:38:48;;;;;;;32.70;19.02;;;;;;;9.98;100.00;102468.19;3609349;39;20049;-66
2021/05/31 01:41:15;;;;;;;28.70;17.92;;;;;;;10.01;100.00;102477.88;3610114;39;20182;-66
2021/05/31 01:43:44;;;;;;;27.88;17.83;;;;;;;9.95;100.00;102473.75;3609814;39;20084;-66
2021/05/31 01:46:12;;;;;;;33.00;18.17;;;;;;;9.97;100.00;102473.66;3608863;39;20055;-67
2021/05/31 01:48:39;;;;;;;40.27;20.33;;;;;;;9.81;100.00;102473.69;3610018;39;20666;-67
2021/05/31 01:51:06;;;;;;;35.90;19.20;;;;;;;9.71;100.00;102473.38;3610079;39;20269;-66
2021/05/31 01:53:33;;;;;;;32.00;18.73;;;;;;;9.77;100.00;102466.75;3608265;39;20050;-66
2021/05/31 01:56:00;;;;;;;29.45;19.38;;;;;;;9.82;100.00;102468.22;3610262;39;20040;-66
2021/05/31 01:58:27;;;;;;;34.20;20.20;;;;;;;9.75;100.00;102474.06;3608892;39;20053;-66
2021/05/31 02:00:53;;;;;;;28.92;18.65;;;;;;;9.71;100.00;102473.38;3609772;39;20286;-66
2021/05/31 02:03:21;;;;;;;29.45;17.67;;;;;;;9.65;100.00;102468.34;3609264;39;20051;-66
2021/05/31 02:05:47;;;;;;;27.98;18.27;;;;;;;9.71;100.00;102476.06;3609308;39;20035;-66
2021/05/31 02:08:13;;;;;;;38.65;20.02;;;;;;;9.63;100.00;102475.66;3610082;39;20059;-66
2021/05/31 02:10:39;;;;;;;28.33;18.80;;;;;;;9.62;100.00;102479.28;3610374;39;20442;-66
2021/05/31 02:13:05;;;;;;;27.20;18.20;;;;;;;9.67;100.00;102474.50;3609963;39;20054;-67
2021/05/31 02:15:38;;;;;;;28.75;18.45;;;;;;;9.64;100.00;102472.00;3609978;39;20068;-66
2021/05/31 02:18:11;;;;;;;27.98;18.00;;;;;;;9.63;100.00;102467.59;3686975;22;20308;-66
2021/05/31 02:20:41;;;;;;;33.80;18.95;;;;;;;9.54;100.00;102470.81;3606202;39;20132;-66
2021/05/31 02:23:09;;;;;;;35.17;19.48;;;;;;;9.56;100.00;102468.91;3608307;39;20052;-66
2021/05/31 02:25:36;;;;;;;29.95;19.63;;;;;;;9.48;100.00;102461.28;3610306;39;20077;-67
2021/05/31 02:28:02;;;;;;;31.45;19.40;;;;;;;9.48;100.00;102469.34;3610525;39;20051;-66
2021/05/31 02:30:29;;;;;;;33.17;20.45;;;;;;;9.52;100.00;102470.03;3609618;39;20062;-66
2021/05/31 02:32:57;;;;;;;27.85;18.95;;;;;;;9.42;100.00;102462.53;3609747;39;20129;-66
2021/05/31 02:35:25;;;;;;;28.50;19.38;;;;;;;9.35;100.00;102469.19;3610608;39;20085;-67
2021/05/31 02:37:52;;;;;;;35.38;19.92;;;;;;;9.40;100.00;102467.09;3611044;39;20043;-66
2021/05/31 02:40:20;;;;;;;35.28;21.15;;;;;;;9.45;100.00;102467.72;3610180;39;20058;-66
2021/05/31 02:42:48;;;;;;;35.03;20.65;;;;;;;9.36;100.00;102467.38;3611518;39;20039;-67
2021/05/31 02:45:15;;;;;;;34.92;20.85;;;;;;;9.36;100.00;102462.00;3609705;39;20043;-66
2021/05/31 02:47:41;;;;;;;34.10;21.02;;;;;;;9.33;100.00;102463.03;3610697;39;20077;-67
2021/05/31 02:50:08;;;;;;;30.83;19.73;;;;;;;9.33;100.00;102463.03;3609509;39;20039;-66
2021/05/31 02:52:39;;;;;;;28.48;19.13;;;;;;;9.31;100.00;102464.09;3610830;39;20043;-66
2021/05/31 02:55:08;;;;;;;32.22;19.95;;;;;;;9.32;100.00;102458.63;3611308;39;20131;-66
2021/05/31 02:57:34;;;;;;;36.25;21.15;;;;;;;9.22;100.00;102460.13;3611681;39;20028;-67
2021/05/31 03:00:00;;;;;;;37.58;22.38;;;;;;;9.22;100.00;102455.59;3611617;39;20055;-66
2021/05/31 03:02:26;;;;;;;35.20;20.35;;;;;;;9.18;100.00;102458.56;3610812;39;20073;-67
2021/05/31 03:04:52;;;;;;;33.03;20.20;;;;;;;9.22;100.00;102460.13;3611923;39;20048;-67
2021/05/31 03:07:18;;;;;;;31.25;20.52;;;;;;;9.18;100.00;102463.94;3610723;39;20079;-67
2021/05/31 03:09:44;;;;;;;36.30;22.10;;;;;;;9.09;100.00;102460.78;3611361;39;20070;-66
2021/05/31 03:12:12;;;;;;;35.20;22.50;;;;;;;9.09;100.00;102466.16;3610433;39;20124;-66
2021/05/31 03:14:38;;;;;;;35.90;22.17;;;;;;;9.14;100.00;102457.00;3611189;39;20073;-66
2021/05/31 03:17:04;;;;;;;33.95;21.52;;;;;;;9.05;100.00;102459.22;3611518;39;20082;-67
2021/05/31 03:19:30;;;;;;;36.47;21.70;;;;;;;9.05;100.00;102464.59;3611367;39;20135;-66
2021/05/31 03:21:56;;;;;;;38.78;22.52;;;;;;;8.98;100.00;102462.34;3611120;39;20067;-67
2021/05/31 03:24:22;;;;;;;36.28;21.65;;;;;;;8.97;100.00;102457.97;3609250;39;20067;-67
2021/05/31 03:26:48;;;;;;;35.60;22.50;;;;;;;8.93;100.00;102455.41;3611877;39;20398;-67
2021/05/31 03:29:15;;;;;;;42.88;25.13;;;;;;;8.84;100.00;102465.84;3610301;39;20054;-66
2021/05/31 03:31:41;;;;;;;35.03;22.50;;;;;;;8.87;100.00;102468.34;3609495;39;20051;-66
2021/05/31 03:34:07;;;;;;;36.63;23.27;;;;;;;8.81;100.00;102461.50;3609952;39;20038;-66
2021/05/31 03:36:33;;;;;;;40.78;23.23;;;;;;;8.80;100.00;102466.94;3610145;39;20051;-66
2021/05/31 03:38:59;;;;;;;38.50;23.00;;;;;;;8.81;100.00;102463.31;3609644;39;20050;-66
2021/05/31 03:41:25;;;;;;;34.72;21.27;;;;;;;8.86;100.00;102458.53;3609747;39;20059;-66
2021/05/31 03:43:51;;;;;;;33.05;21.42;;;;;;;8.91;100.00;102469.91;3609384;39;20063;-66
2021/05/31 03:46:18;;;;;;;41.53;24.15;;;;;;;8.92;100.00;102468.94;3609507;39;20043;-66
2021/05/31 03:48:45;;;;;;;35.80;21.60;;;;;;;8.84;100.00;102461.31;3608576;39;20417;-66
2021/05/31 03:51:12;;;;;;;34.17;22.45;;;;;;;8.87;100.00;102465.66;3607558;39;20409;-67
2021/05/31 03:53:40;;;;;;;34.50;21.92;;;;;;;8.84;100.00;102466.69;3608858;39;20059;-66
2021/05/31 03:56:07;;;;;;;37.05;22.00;;;;;;;8.88;100.00;102468.25;3608975;39;20378;-66
2021/05/31 03:58:35;;;;;;;35.20;22.42;;;;;;;8.89;100.00;102469.09;3609785;39;20055;-66
2021/05/31 04:01:02;;;;;;;34.90;21.60;;;;;;;8.93;100.00;102468.00;3609075;39;20427;-66
2021/05/31 04:03:29;;;;;;;38.42;22.08;;;;;;;8.85;100.00;102464.84;3608531;39;20053;-66
2021/05/31 04:06:02;;;;;;;38.38;21.98;;;;;;;8.88;100.00;102462.88;3610175;39;20400;-66
2021/05/31 04:14:11;;;;;;;34.22;21.20;;;;;;;9.03;100.00;102465.66;3567484;40;20059;-66
2021/05/31 04:16:39;;;;;;;34.85;21.90;;;;;;;8.91;100.00;102465.41;3599489;39;20133;-67
2021/05/31 04:19:08;;;;;;;33.42;21.52;;;;;;;9.00;100.00;102464.00;3610448;39;20123;-67
2021/05/31 04:21:35;;;;;;;40.17;23.63;;;;;;;9.02;100.00;102467.47;3610287;39;20047;-67
2021/05/31 04:24:01;;;;;;;38.17;21.98;;;;;;;9.05;100.00;102459.22;3610230;39;20052;-67
2021/05/31 04:26:28;;;;;;;35.05;21.65;;;;;;;9.05;100.00;102455.69;3610688;39;20047;-67
2021/05/31 04:28:53;;;;;;;36.33;22.85;;;;;;;9.01;100.00;102460.38;3610452;39;20055;-67
2021/05/31 04:31:20;;;;;;;35.33;21.27;;;;;;;9.23;100.00;102461.81;3609855;39;20398;-67
2021/05/31 04:33:46;;;;;;;37.40;23.13;;;;;;;9.33;100.00;102460.34;3609216;39;20068;-67
2021/05/31 04:36:13;;;;;;;37.22;21.48;;;;;;;9.24;100.00;102456.38;3609401;39;20047;-67
2021/05/31 04:38:39;;;;;;;38.92;22.58;;;;;;;9.30;100.00;102463.22;3609692;39;20134;-67
2021/05/31 04:41:05;;;;;;;33.55;21.27;;;;;;;9.33;100.00;102463.03;3609803;39;20063;-67
2021/05/31 04:43:32;;;;;;;37.90;22.60;;;;;;;9.28;100.00;102457.94;3609619;39;20065;-67
2021/05/31 04:45:58;;;;;;;41.35;23.02;;;;;;;9.38;100.00;102455.59;3611091;39;20046;-67
2021/05/31 04:48:24;;;;;;;43.03;22.17;;;;;;;10.10;100.00;102453.13;3610662;39;20035;-67
2021/05/31 04:50:56;;;;;;;38.95;23.58;;;;;;;10.55;100.00;102455.75;3610830;39;20048;-67
2021/05/31 04:53:24;;;;;;;31.77;20.35;;;;;;;11.72;100.00;102456.22;3609896;39;20067;-67
2021/05/31 04:55:50;;;;;;;31.52;20.35;;;;;;;12.23;100.00;102450.06;3610051;39;20087;-67
2021/05/31 04:58:16;;;;;;;32.22;20.65;;;;;;;11.99;100.00;102451.75;3609040;39;20418;-67
2021/05/31 05:00:42;;;;;;;31.58;20.73;;;;;;;12.36;100.00;102454.56;3610569;39;20046;-67
2021/05/31 05:03:08;;;;;;;27.15;19.02;;;;;;;12.59;100.00;102447.53;3610417;39;20390;-67
2021/05/31 05:05:34;;;;;;;30.65;18.67;;;;;;;12.19;100.00;102448.53;3610040;39;20059;-67
2021/05/31 05:08:00;;;;;;;27.00;18.70;;;;;;;11.69;100.00;102442.94;3610790;39;20055;-67
2021/05/31 05:10:27;;;;;;;29.95;20.50;;;;;;;11.28;100.00;102443.00;3610058;39;20400;-67
2021/05/31 05:12:53;;;;;;;31.15;20.25;;;;;;;10.96;100.00;102440.63;3610192;39;20308;-67
2021/05/31 05:15:21;;;;;;;31.50;21.55;;;;;;;10.59;100.00;102446.53;3610576;39;20055;-67
2021/05/31 05:17:48;;;;;;;32.25;21.08;;;;;;;10.51;100.00;102448.81;3609066;39;20154;-67
2021/05/31 05:20:15;;;;;;;32.40;22.25;;;;;;;10.58;100.00;102452.00;3610445;39;20048;-67
2021/05/31 05:22:42;;;;;;;30.55;21.63;;;;;;;10.72;100.00;102443.94;3609682;39;20047;-68
2021/05/31 05:25:10;;;;;;;31.10;20.70;;;;;;;10.74;100.00;102447.38;3609962;39;20096;-67
2021/05/31 05:27:38;;;;;;;35.47;21.48;;;;;;;10.66;100.00;102444.31;3610631;39;20035;-67
2021/05/31 05:30:05;;;;;;;27.38;20.63;;;;;;;10.65;100.00;102448.81;3609541;39;20091;-68
2021/05/31 05:32:32;;;;;;;38.33;21.73;;;;;;;10.73;100.00;102445.63;3609785;39;20416;-67
2021/05/31 05:35:06;;;;;;;33.90;22.67;;;;;;;10.77;100.00;102439.09;3609576;39;20139;-68
2021/05/31 05:37:33;;;;;;;36.47;21.52;;;;;;;10.76;100.00;102448.16;3609346;39;20058;-68
2021/05/31 05:40:17;;;;;;;37.55;22.48;;;;;;;10.69;100.00;102441.44;3610280;39;20048;-68
2021/05/31 05:43:01;;;;;;;31.88;21.33;;;;;;;10.79;100.00;102439.88;3608829;39;20043;-69
2021/05/31 05:48:11;;;;;;;34.28;22.45;;;;;;;10.81;100.00;102448.72;3609220;39;20050;-68
2021/05/31 05:50:37;;;;;;;40.25;24.23;;;;;;;10.72;100.00;102438.53;3608544;39;20047;-68
2021/05/31 05:53:03;;;;;;;35.80;22.23;;;;;;;10.93;100.00;102435.44;3607664;39;20343;-67
2021/05/31 05:55:29;;;;;;;33.05;22.05;;;;;;;10.82;100.00;102428.91;3607525;39;20051;-68
2021/05/31 05:57:57;;;;;;;35.90;23.35;;;;;;;10.79;100.00;102431.81;3609973;39;20055;-66
2021/05/31 06:00:25;;;;;;;34.25;22.38;;;;;;;11.09;100.00;102436.16;3608014;39;20128;-66
2021/05/31 06:02:52;;;;;;;34.50;21.40;;;;;;;11.15;100.00;102438.44;3608285;39;20134;-67
2021/05/31 06:05:18;;;;;;;33.55;22.13;;;;;;;11.28;100.00;102440.31;3607579;39;20047;-67
2021/05/31 06:10:33;;;;;;;30.55;20.85;;;;;;;11.71;100.00;102443.69;3624315;22;20322;-67
2021/05/31 06:13:00;;;;;;;31.15;21.25;;;;;;;11.90;100.00;102445.97;3600841;39;20404;-67
2021/05/31 06:15:26;;;;;;;29.38;21.25;;;;;;;11.82;100.00;102448.38;3599232;39;20048;-67
2021/05/31 06:17:52;;;;;;;35.95;22.33;;;;;;;11.85;100.00;102448.16;3600359;39;20307;-67
2021/05/31 06:20:18;;;;;;;31.63;22.35;;;;;;;11.60;100.00;102456.16;3600097;39;20043;-67
2021/05/31 06:22:44;;;;;;;32.10;22.88;;;;;;;11.67;100.00;102446.69;3600328;39;20048;-67
2021/05/31 06:25:12;;;;;;;32.70;22.38;;;;;;;11.86;100.00;102441.75;3600580;39;20372;-67
2021/05/31 06:27:38;;;;;;;31.77;21.85;;;;;;;11.97;100.00;102445.59;3601062;39;20128;-67
2021/05/31 06:30:07;;;;;;;29.15;21.15;;;;;;;12.39;100.00;102438.16;3599517;39;20077;-67
2021/05/31 06:32:33;;;;;;;29.35;21.40;;;;;;;12.30;100.00;102445.06;3600553;39;20055;-66
2021/05/31 06:34:59;;;;;;;28.63;21.48;;;;;;;12.59;100.00;102432.19;3598422;39;20039;-66
2021/05/31 06:37:25;;;;;;;25.17;19.92;;;;;;;12.49;100.00;102439.22;3599064;39;20056;-67
2021/05/31 06:39:51;;;;;;;28.67;22.25;;;;;;;12.39;100.00;102438.16;3599205;39;20136;-67
2021/05/31 06:42:17;;;;;;;27.20;19.98;;;;;;;12.58;100.00;102430.44;3599240;39;20056;-67
2021/05/31 06:44:43;;;;;;;28.17;20.63;;;;;;;12.59;100.00;102436.75;3599434;39;20054;-67
2021/05/31 06:47:11;;;;;;;28.60;20.77;;;;;;;12.55;100.00;102441.47;3598676;39;20028;-67
2021/05/31 06:49:37;;;;;;;26.73;20.05;;;;;;;12.53;100.00;102445.25;3600607;39;20133;-66
2021/05/31 06:52:05;;;;;;;26.30;20.05;;;;;;;12.35;100.00;102442.03;3599667;39;20486;-66
2021/05/31 06:54:31;;;;;;;26.50;20.05;;;;;;;12.41;100.00;102447.00;3601190;39;20044;-66
2021/05/31 06:56:58;;;;;;;27.38;20.85;;;;;;;12.67;100.00;102438.88;3599458;39;20498;-66
2021/05/31 06:59:24;;;;;;;27.70;20.48;;;;;;;12.90;100.00;102443.47;3601661;39;20044;-66
2021/05/31 07:01:50;;;;;;;28.17;20.70;;;;;;;12.96;100.00;102436.75;3600303;39;20059;-67
2021/05/31 07:04:18;;;;;;;27.15;19.65;;;;;;;12.98;100.00;102426.69;3599476;39;20065;-67
2021/05/31 07:06:44;;;;;;;27.10;20.27;;;;;;;13.16;100.00;102427.16;3599946;39;20148;-67
2021/05/31 07:09:12;;;;;;;26.13;19.60;;;;;;;13.05;100.00;102424.41;3600546;39;20425;-67
2021/05/31 07:11:42;;;;;;;26.98;20.10;;;;;;;12.95;100.00;102427.75;3601811;39;20043;-67
2021/05/31 07:14:11;;;;;;;28.17;20.90;;;;;;;13.16;100.00;102427.16;3600630;39;20039;-66
2021/05/31 07:16:39;;;;;;;27.58;20.25;;;;;;;13.31;100.00;102428.72;3600979;39;20032;-67
2021/05/31 07:19:05;;;;;;;26.30;20.55;;;;;;;13.11;100.00;102434.75;3600197;39;20043;-67
2021/05/31 07:21:33;;;;;;;29.63;21.25;;;;;;;13.36;100.00;102428.41;3599900;39;20052;-67
2021/05/31 07:23:59;;;;;;;27.80;20.98;;;;;;;13.41;100.00;102434.34;3602230;39;20047;-67
2021/05/31 07:26:25;;;;;;;25.27;20.50;;;;;;;13.58;100.00;102430.31;3601152;39;20056;-68
2021/05/31 07:28:51;;;;;;;26.80;21.02;;;;;;;13.80;100.00;102426.84;3600706;39;20382;-68
2021/05/31 07:31:17;;;;;;;26.40;19.83;;;;;;;14.00;100.00;102436.13;3598535;39;20074;-67
2021/05/31 07:33:43;;;;;;;28.25;21.50;;;;;;;13.75;100.00;102422.75;3600411;39;20063;-67
2021/05/31 07:36:09;;;;;;;26.17;20.30;;;;;;;13.81;100.00;102422.31;3599128;39;20052;-68
2021/05/31 07:38:36;;;;;;;33.78;20.52;;;;;;;14.09;100.00;102428.25;3600431;39;20044;-68
2021/05/31 07:41:02;;;;;;;27.67;20.50;;;;;;;14.18;100.00;102422.13;3599254;39;20038;-67
2021/05/31 07:43:28;;;;;;;27.73;20.90;;;;;;;14.04;100.00;102416.94;3599079;39;20063;-67
2021/05/31 07:45:54;;;;;;;26.67;20.20;;;;;;;14.15;100.00;102419.66;3600811;39;20065;-68
2021/05/31 07:48:20;;;;;;;29.67;21.35;;;;;;;13.99;100.00;102411.88;3600656;39;20430;-68
2021/05/31 07:50:46;;;;;;;28.02;20.08;;;;;;;14.24;100.00;102413.50;3599807;39;20424;-68
2021/05/31 07:53:15;;;;;;;28.88;21.75;;;;;;;14.39;100.00;102410.56;3599249;39;20418;-68
2021/05/31 07:55:43;;;;;;;26.40;20.92;;;;;;;14.78;100.00;102417.34;3600446;39;20039;-68
2021/05/31 07:58:09;;;;;;;27.67;20.45;;;;;;;15.04;100.00;102406.19;3599718;39;20063;-68
2021/05/31 08:00:35;;;;;;;32.75;22.15;;;;;;;14.76;100.00;102415.72;3600140;39;20314;-68
2021/05/31 08:03:01;;;;;;;27.58;20.35;;;;;;;14.96;100.00;102414.97;3601477;39;20060;-68
2021/05/31 08:05:27;;;;;;;27.13;21.10;;;;;;;15.01;100.00;102411.84;3601208;39;20052;-68
2021/05/31 08:07:53;;;;;;;27.75;21.80;;;;;;;15.06;100.00;102415.03;3601473;39;20063;-68
2021/05/31 08:10:19;;;;;;;25.48;20.58;;;;;;;15.02;100.00;102409.03;3600839;39;20148;-69
2021/05/31 08:12:46;;;;;;;28.45;20.85;;;;;;;15.34;100.00;102407.31;3600813;39;20046;-68
2021/05/31 08:15:13;;;;;;;25.90;20.55;;;;;;;15.61;100.00;102409.53;3599571;39;20055;-69
2021/05/31 08:17:40;;;;;;;27.75;20.45;;;;;;;15.58;100.00;102407.09;3600553;39;20055;-68
2021/05/31 08:20:08;;;;;;;29.17;21.52;;;;;;;15.79;100.00;102417.13;3597775;39;21287;-68
2021/05/31 08:25:04;;;;;;;;;;;;;;;15.69;100.00;102407.00;3625696;22;20052;-68
2021/05/31 08:27:30;;;;;;;26.55;20.15;;;;;;;15.91;100.00;102405.19;3598971;39;19936;-68
2021/05/31 08:29:58;;;;;;;29.67;21.88;;;;;;;15.71;100.00;102412.34;3599637;39;20047;-68
2021/05/31 08:32:24;;;;;;;27.77;20.48;;;;;;;16.19;100.00;102410.94;3598108;39;20059;-69
2021/05/31 08:34:50;;;;;;;26.58;19.75;;;;;;;16.42;100.00;102404.31;3598171;39;20380;-69
2021/05/31 08:37:16;;;;;;;28.90;21.02;;;;;;;16.20;100.00;102404.50;3597955;39;20137;-68
2021/05/31 08:39:42;;;;;;;23.83;18.95;;;;;;;16.51;100.00;102401.78;3599697;39;20394;-69
2021/05/31 08:42:08;;;;;;;26.17;19.20;;;;;;;16.76;100.00;102395.84;3598785;39;20052;-69
2021/05/31 08:44:34;;;;;;;24.92;18.67;;;;;;;16.65;100.00;102393.22;3597105;39;20056;-69
2021/05/31 08:47:03;;;;;;;23.75;18.67;;;;;;;16.58;100.00;102386.66;3599617;39;20335;-68
2021/05/31 08:49:29;;;;;;;25.65;20.65;;;;;;;16.52;100.00;102393.50;3596716;39;20043;-69
2021/05/31 08:51:55;;;;;;;26.80;19.40;;;;;;;16.74;100.00;102395.13;3590735;39;20040;-69
2021/05/31 08:54:21;;;;;;;23.83;18.35;;;;;;;17.14;100.00;102393.38;3592853;39;20070;-69
2021/05/31 08:56:49;;;;;;;24.65;18.83;;;;;;;17.36;100.00;102392.22;3597897;39;20353;-69
2021/05/31 08:59:15;;;;;;;24.75;19.30;;;;;;;17.76;100.00;102390.34;3599934;39;20043;-69
2021/05/31 09:01:41;;;;;;;22.30;16.75;;;;;;;17.81;100.00;102386.13;3600001;39;20075;-68
2021/05/31 09:04:13;;;;;;;25.25;18.17;;;;;;;17.90;100.00;102380.88;3597280;39;20054;-69
2021/05/31 09:06:39;;;;;;;23.00;17.58;;;;;;;17.77;100.00;102378.41;3599137;39;20177;-69
2021/05/31 09:09:05;;;;;;;23.17;17.60;;;;;;;17.98;100.00;102375.56;3597068;39;20039;-70
2021/05/31 09:11:31;;;;;;;26.63;18.33;;;;;;;17.75;100.00;102369.53;3596264;39;20062;-69
2021/05/31 09:13:58;;;;;;;24.67;18.55;;;;;;;17.78;100.00;102375.53;3598161;39;20071;-70
2021/05/31 09:16:26;;;;;;;24.10;17.83;;;;;;;17.66;100.00;102372.13;3597892;39;20401;-69
2021/05/31 09:18:53;;;;;;;23.95;17.35;;;;;;;17.78;100.00;102372.81;3600492;39;20068;-69
2021/05/31 09:21:22;;;;;;;21.30;17.35;;;;;;;18.21;100.00;102374.19;3596578;39;20060;-69
2021/05/31 09:23:51;;;;;;;24.45;16.60;;;;;;;18.79;100.00;102366.69;3598350;39;20326;-69
2021/05/31 09:26:17;;;;;;;19.60;16.13;;;;;;;18.87;100.00;102361.38;3597437;39;20389;-69
2021/05/31 09:28:54;;;;;;;23.17;16.30;;;;;;;18.76;100.00;102358.81;3597548;39;20052;-69
2021/05/31 09:31:21;;;;;;;23.10;16.58;;;;;;;18.56;100.00;102372.59;3597751;39;20410;-70
2021/05/31 09:33:57;;;;;;;22.92;16.13;;;;;;;19.00;100.00;102354.66;3599737;39;20387;-69
2021/05/31 09:36:24;;;;;;;22.60;15.27;;;;;;;18.97;100.00;102354.97;3598860;39;20063;-70
2021/05/31 09:38:51;;;;;;;22.05;15.80;;;;;;;19.14;100.00;102364.16;3597163;39;20061;-70
2021/05/31 09:41:28;;;;;;;20.98;15.77;;;;;;;19.24;100.00;102362.22;3598257;39;20088;-70
2021/05/31 09:43:56;;;;;;;21.95;15.65;;;;;;;19.74;100.00;102364.34;3599289;39;20047;-70
2021/05/31 09:46:34;;;;;;;20.33;15.18;;;;;;;19.65;100.00;102358.97;3596738;39;20047;-70
2021/05/31 09:49:00;;;;;;;18.77;14.32;;;;;;;19.90;100.00;102355.41;3599605;39;20051;-70
2021/05/31 09:51:28;;;;;;;22.00;15.38;;;;;;;19.67;100.00;102355.06;3596540;39;20048;-70
2021/05/31 09:53:55;;;;;;;19.23;15.43;;;;;;;19.89;100.00;102356.44;3598486;39;20308;-70
2021/05/31 09:56:21;;;;;;;21.38;15.57;;;;;;;20.06;100.00;102351.91;3598370;39;20068;-71
2021/05/31 09:58:50;;;;;;;22.15;13.98;;;;;;;20.39;100.00;102353.94;3597620;39;20051;-70
2021/05/31 10:01:32;;;;;;;20.92;14.25;;;;;;;20.38;100.00;102341.31;3598965;39;20039;-70
2021/05/31 10:04:11;;;;;;;19.67;14.45;;;;;;;20.61;100.00;102345.16;3601487;39;20043;-70
2021/05/31 10:06:45;;;;;;;20.25;14.27;;;;;;;20.41;100.00;102338.25;3598536;39;20047;-71
2021/05/31 10:09:11;;;;;;;16.90;13.45;;;;;;;20.80;100.00;102337.69;3596064;39;20394;-71
2021/05/31 10:11:37;;;;;;;17.52;13.73;;;;;;;20.91;100.00;102328.31;3597921;39;20352;-71
2021/05/31 10:14:03;;;;;;;17.92;13.35;;;;;;;21.00;100.00;102338.25;3598731;39;20059;-70
2021/05/31 10:16:32;;;;;;;20.08;13.70;;;;;;;20.97;100.00;102339.44;3598540;39;20067;-70
2021/05/31 10:18:58;;;;;;;16.88;13.73;;;;;;;20.70;100.00;102332.41;3599434;39;20060;-70
2021/05/31 10:21:25;;;;;;;17.67;14.10;;;;;;;20.63;100.00;102321.22;3597960;39;20046;-69
2021/05/31 10:23:53;;;;;;;18.38;12.52;;;;;;;20.78;100.00;102321.44;3599299;39;20310;-69
2021/05/31 10:26:21;;;;;;;16.67;12.75;;;;;;;21.11;100.00;102329.72;3598570;39;20064;-69
2021/05/31 10:28:47;;;;;;;15.93;12.32;;;;;;;21.10;100.00;102322.53;3599195;39;20160;-69
2021/05/31 10:31:13;;;;;;;17.30;13.43;;;;;;;21.02;100.00;102324.41;3596194;39;20517;-68
2021/05/31 10:33:40;;;;;;;16.35;12.13;;;;;;;21.51;100.00;102311.59;3598183;39;20028;-70
2021/05/31 10:36:14;;;;;;;18.70;13.10;;;;;;;21.32;100.00;102312.75;3596259;39;20066;-70
2021/05/31 10:38:40;;;;;;;16.13;12.88;;;;;;;21.09;100.00;102309.00;3599694;39;20050;-70
2021/05/31 10:41:16;;;;;;;17.20;11.48;;;;;;;21.16;100.00;102304.56;3596444;39;20048;-70
2021/05/31 10:43:47;;;;;;;14.60;12.02;;;;;;;21.13;100.00;102307.66;3598214;39;20177;-69
2021/05/31 10:46:17;;;;;;;15.93;11.93;;;;;;;21.18;100.00;102307.97;3597241;39;20459;-71
2021/05/31 10:48:45;;;;;;;16.83;11.00;;;;;;;21.21;100.00;102302.16;3599189;39;20387;-70
2021/05/31 10:51:14;;;;;;;16.60;10.05;;;;;;;21.74;100.00;102296.28;3596564;39;20044;-70
2021/05/31 10:53:40;;;;;;;16.48;11.10;;;;;;;21.59;100.00;102305.22;3596670;39;20039;-70
2021/05/31 10:56:09;;;;;;;14.50;10.93;;;;;;;21.47;100.00;102301.13;3595418;39;20105;-70
2021/05/31 10:58:38;;;;;;;12.30;9.18;;;;;;;21.53;100.00;102300.44;3595803;39;20052;-70
2021/05/31 11:01:07;;;;;;;12.48;9.13;;;;;;;21.54;100.00;102302.16;3594366;39;20031;-69
2021/05/31 11:03:43;;;;;;;;;;;;;;;21.39;100.00;102303.84;3598084;39;20047;-71
2021/05/31 11:06:11;;;;;;;10.50;8.50;;;;;;;21.86;100.00;102283.91;3598657;39;20289;-71
2021/05/31 11:08:48;;;;;;;10.63;8.48;;;;;;;21.98;100.00;102288.00;3599782;39;20068;-69
2021/05/31 11:11:27;;;;;;;11.05;7.55;;;;;;;22.00;95.54;102290.56;3679319;22;20145;-68
2021/05/31 11:13:56;;;;;;;8.88;6.38;;;;;;;21.95;82.04;102285.63;3581523;40;20060;-70
2021/05/31 11:16:22;;;;;;;8.25;6.53;;;;;;;21.77;94.09;102285.81;3581258;40;20078;-70
2021/05/31 11:18:54;;;;;;;9.93;6.50;;;;;;;21.88;94.12;102282.72;3581019;40;20052;-70
2021/05/31 11:21:27;;;;;;;10.43;6.30;;;;;;;21.70;78.03;102279.34;3581419;40;20145;-69
2021/05/31 11:24:01;;;;;;;11.40;6.05;;;;;;;22.18;87.83;102279.34;3581310;40;20057;-70
2021/05/31 11:26:30;;;;;;;6.20;5.00;;;;;;;22.25;74.49;102283.09;3582347;40;22744;-69